createdAt,value
2023-03-16T00:02:08.361Z,97517.03
2023-03-16T00:04:38.069Z,97507.94
2023-03-16T00:07:06.355Z,97514.34
2023-03-16T00:09:33.176Z,97497.19
2023-03-16T00:12:03.590Z,97524.59
2023-03-16T00:14:31.967Z,97514.41
2023-03-16T00:16:58.812Z,97513.03
2023-03-16T00:19:25.569Z,97508.94
2023-03-16T00:21:53.363Z,97531.47
2023-03-16T00:24:20.447Z,97525.78
2023-03-16T00:26:48.093Z,97534.31
2023-03-16T00:29:15.034Z,97510.34
2023-03-16T00:31:45.522Z,97517.84
2023-03-16T00:34:13.080Z,97535.88
2023-03-16T00:36:39.777Z,97536.66
2023-03-16T00:39:07.113Z,97542.53
2023-03-16T00:41:38.237Z,97539.53
2023-03-16T00:44:05.724Z,97540.31
2023-03-16T00:46:32.837Z,97546.72
2023-03-16T00:48:59.441Z,97547.00
2023-03-16T00:51:26.102Z,97545.66
2023-03-16T00:53:52.799Z,97550.50
2023-03-16T00:56:19.611Z,97544.34
2023-03-16T00:58:46.337Z,97533.00
2023-03-16T01:01:16.922Z,97534.28
2023-03-16T01:03:43.639Z,97538.31
2023-03-16T01:06:17.301Z,97554.06
2023-03-16T01:08:44.371Z,97544.63
2023-03-16T01:11:16.344Z,97563.03
2023-03-16T01:13:44.112Z,97535.28
2023-03-16T01:16:11.196Z,97546.06
2023-03-16T01:18:37.847Z,97557.84
2023-03-16T01:21:08.180Z,97551.88
2023-03-16T01:23:35.687Z,97550.50
2023-03-16T01:26:02.512Z,97540.56
2023-03-16T01:28:31.975Z,97563.31
2023-03-16T01:31:05.959Z,97553.56
2023-03-16T01:33:33.952Z,97570.66
2023-03-16T01:36:07.289Z,97571.97
2023-03-16T01:38:34.092Z,97557.56
2023-03-16T01:41:00.999Z,97565.44
2023-03-16T01:43:29.960Z,97551.19
2023-03-16T01:46:05.699Z,97572.16
2023-03-16T01:48:54.642Z,97566.03
2023-03-16T01:51:37.833Z,97562.44
2023-03-16T01:54:22.080Z,97526.66
2023-03-16T01:56:58.592Z,97567.00
2023-03-16T01:59:32.516Z,97566.16
2023-03-16T02:02:00.118Z,97560.53
2023-03-16T02:04:44.834Z,97557.84
2023-03-16T02:07:16.993Z,97559.38
2023-03-16T02:09:49.449Z,97570.34
2023-03-16T02:12:18.749Z,97582.88
2023-03-16T02:14:46.924Z,97583.97
2023-03-16T02:17:20.341Z,97575.13
2023-03-16T02:20:01.813Z,97575.69
2023-03-16T02:22:28.608Z,97580.09
2023-03-16T02:24:55.309Z,97579.88
2023-03-16T02:27:40.952Z,97578.44
2023-03-16T02:30:14.031Z,97592.03
2023-03-16T02:32:41.796Z,97587.75
2023-03-16T02:35:11.111Z,97598.91
2023-03-16T02:37:37.716Z,97592.13
2023-03-16T02:40:23.798Z,97601.84
2023-03-16T02:43:09.937Z,97594.94
2023-03-16T02:45:49.405Z,97615.38
2023-03-16T02:48:27.134Z,97607.38
2023-03-16T02:50:54.805Z,97601.38
2023-03-16T02:53:21.533Z,97618.13
2023-03-16T02:55:48.422Z,97627.69
2023-03-16T02:58:16.758Z,97637.63
2023-03-16T03:00:43.643Z,97633.25
2023-03-16T03:03:10.467Z,97638.38
2023-03-16T03:05:37.568Z,97637.47
2023-03-16T03:08:05.688Z,97637.97
2023-03-16T03:10:32.597Z,97637.66
2023-03-16T03:12:59.433Z,97645.41
2023-03-16T03:15:26.138Z,97635.63
2023-03-16T03:17:52.970Z,97633.53
2023-03-16T03:20:19.715Z,97651.72
2023-03-16T03:22:48.986Z,97658.69
2023-03-16T03:25:18.485Z,97633.53
2023-03-16T03:27:46.730Z,97663.97
2023-03-16T03:30:16.493Z,97663.38
2023-03-16T03:32:44.211Z,97664.81
2023-03-16T03:35:13.460Z,97683.03
2023-03-16T03:37:42.492Z,97655.31
2023-03-16T03:40:11.455Z,97678.75
2023-03-16T03:42:39.336Z,97662.81
2023-03-16T03:45:07.982Z,97679.56
2023-03-16T03:47:34.962Z,97672.78
2023-03-16T03:50:01.770Z,97651.19
2023-03-16T03:52:28.787Z,97690.56
2023-03-16T03:54:55.379Z,97694.19
2023-03-16T03:57:22.229Z,97655.28
2023-03-16T03:59:49.225Z,97683.09
2023-03-16T04:02:16.354Z,97679.47
2023-03-16T04:04:44.058Z,97686.66
2023-03-16T04:07:11.448Z,97705.13
2023-03-16T04:09:38.036Z,97695.66
2023-03-16T04:12:06.302Z,97702.72
2023-03-16T04:14:33.161Z,97705.38
2023-03-16T04:17:00.181Z,97700.28
2023-03-16T04:19:26.773Z,97695.19
2023-03-16T04:21:53.690Z,97714.50
2023-03-16T04:24:22.501Z,97693.78
2023-03-16T04:26:49.189Z,97700.75
2023-03-16T04:29:19.721Z,97688.53
2023-03-16T04:31:46.915Z,97688.53
2023-03-16T04:34:13.889Z,97713.88
2023-03-16T04:36:41.901Z,97714.03
2023-03-16T04:39:09.400Z,97695.28
2023-03-16T04:41:36.219Z,97706.06
2023-03-16T04:44:02.966Z,97669.66
2023-03-16T04:46:29.769Z,97693.69
2023-03-16T04:48:58.471Z,97695.13
2023-03-16T04:51:26.134Z,97714.88
2023-03-16T04:53:53.018Z,97717.38
2023-03-16T04:56:21.423Z,97716.28
2023-03-16T04:58:49.826Z,97719.31
2023-03-16T05:01:18.717Z,97733.56
2023-03-16T05:03:46.530Z,97717.47
2023-03-16T05:06:13.095Z,97711.25
2023-03-16T05:08:39.739Z,97720.72
2023-03-16T05:11:06.551Z,97733.97
2023-03-16T05:13:33.545Z,97730.19
2023-03-16T05:16:00.890Z,97723.94
2023-03-16T05:18:27.593Z,97724.66
2023-03-16T05:20:58.207Z,97731.81
2023-03-16T05:23:24.843Z,97746.22
2023-03-16T05:25:51.621Z,97741.38
2023-03-16T05:28:18.323Z,97725.84
2023-03-16T05:30:48.148Z,97738.94
2023-03-16T05:33:14.911Z,97750.66
2023-03-16T05:35:41.577Z,97741.34
2023-03-16T05:38:09.996Z,97733.13
2023-03-16T05:40:37.479Z,97747.31
2023-03-16T05:43:04.628Z,97740.34
2023-03-16T05:45:31.473Z,97738.59
2023-03-16T05:47:58.257Z,97740.63
2023-03-16T05:50:26.697Z,97754.97
2023-03-16T05:52:54.324Z,97760.84
2023-03-16T05:55:21.112Z,97757.88
2023-03-16T05:57:47.714Z,97762.81
2023-03-16T06:00:16.401Z,97758.31
2023-03-16T06:02:48.563Z,97767.53
2023-03-16T06:05:16.664Z,97750.88
2023-03-16T06:07:43.777Z,97775.63
2023-03-16T06:10:11.745Z,97759.19
2023-03-16T06:12:38.544Z,97772.41
2023-03-16T06:15:10.468Z,97763.78
2023-03-16T06:17:38.416Z,97769.94
2023-03-16T06:20:11.425Z,97776.31
2023-03-16T06:22:40.090Z,97781.66
2023-03-16T06:25:08.109Z,97780.09
2023-03-16T06:27:34.765Z,97785.69
2023-03-16T06:30:01.679Z,97788.78
2023-03-16T06:32:30.365Z,97776.00
2023-03-16T06:34:59.676Z,97793.81
2023-03-16T06:37:26.235Z,97783.31
2023-03-16T06:39:52.741Z,97775.28
2023-03-16T06:42:19.646Z,97784.59
2023-03-16T06:44:46.253Z,97799.44
2023-03-16T06:47:13.589Z,97798.53
2023-03-16T06:49:40.489Z,97790.97
2023-03-16T06:52:07.084Z,97787.84
2023-03-16T06:54:35.347Z,97799.09
2023-03-16T06:57:02.218Z,97784.94
2023-03-16T06:59:28.950Z,97798.00
2023-03-16T07:01:55.741Z,97802.66
2023-03-16T07:04:22.461Z,97794.91
2023-03-16T07:06:49.450Z,97801.94
2023-03-16T07:09:15.957Z,97814.00
2023-03-16T07:11:42.745Z,97813.22
2023-03-16T07:14:09.460Z,97804.25
2023-03-16T07:16:37.247Z,97813.22
2023-03-16T07:19:03.848Z,97792.28
2023-03-16T07:21:32.301Z,97807.66
2023-03-16T07:24:00.265Z,97805.22
2023-03-16T07:26:27.013Z,97806.34
2023-03-16T07:28:53.646Z,97822.63
2023-03-16T07:31:20.320Z,97814.44
2023-03-16T07:33:47.031Z,97818.31
2023-03-16T07:36:13.622Z,97812.88
2023-03-16T07:38:40.394Z,97824.44
2023-03-16T07:41:07.158Z,97828.84
2023-03-16T07:43:34.509Z,97826.16
2023-03-16T07:46:02.347Z,97843.34
2023-03-16T07:48:29.081Z,97830.97
2023-03-16T07:50:55.632Z,97838.22
2023-03-16T07:53:22.754Z,97843.78
2023-03-16T07:55:49.652Z,97837.03
2023-03-16T07:58:16.317Z,97837.03
2023-03-16T08:00:42.961Z,97843.00
2023-03-16T08:03:10.160Z,97836.84
2023-03-16T08:05:36.764Z,97832.63
2023-03-16T08:08:03.428Z,97838.63
2023-03-16T08:10:31.490Z,97829.41
2023-03-16T08:12:58.345Z,97842.94
2023-03-16T08:15:25.147Z,97849.91
2023-03-16T08:17:52.645Z,97840.34
2023-03-16T08:20:19.423Z,97841.06
2023-03-16T08:22:46.941Z,97836.63
2023-03-16T08:25:14.966Z,97840.47
2023-03-16T08:27:43.161Z,97830.66
2023-03-16T08:30:11.942Z,97831.91
2023-03-16T08:32:41.155Z,97835.66
2023-03-16T08:35:10.245Z,97837.84
2023-03-16T08:37:38.993Z,97832.19
2023-03-16T08:40:14.236Z,97821.38
2023-03-16T08:42:43.212Z,97810.75
2023-03-16T08:45:13.785Z,97847.00
2023-03-16T08:47:41.492Z,97839.00
2023-03-16T08:50:10.109Z,97832.81
2023-03-16T08:52:36.763Z,97839.31
2023-03-16T08:55:07.393Z,97834.25
2023-03-16T08:57:34.680Z,97849.69
2023-03-16T09:00:01.764Z,97852.72
2023-03-16T09:02:29.168Z,97849.47
2023-03-16T09:04:56.454Z,97843.50
2023-03-16T09:07:23.110Z,97854.19
2023-03-16T09:09:50.934Z,97859.66
2023-03-16T09:12:17.644Z,97854.88
2023-03-16T09:14:46.076Z,97852.59
2023-03-16T09:17:13.015Z,97849.56
2023-03-16T09:19:51.245Z,97835.91
2023-03-16T09:22:19.964Z,97843.03
2023-03-16T09:24:47.546Z,97845.88
2023-03-16T09:27:15.407Z,97822.94
2023-03-16T09:29:42.986Z,97848.91
2023-03-16T09:32:09.976Z,97857.91
2023-03-16T09:34:36.783Z,97865.63
2023-03-16T09:37:03.860Z,97870.53
2023-03-16T09:39:48.705Z,97818.66
2023-03-16T09:42:35.458Z,97884.13
2023-03-16T09:45:32.323Z,97879.25
2023-03-16T09:48:03.745Z,97873.91
2023-03-16T09:50:48.463Z,97871.47
2023-03-16T09:53:28.700Z,97880.28
2023-03-16T09:56:01.387Z,97877.72
2023-03-16T09:58:28.575Z,97865.66
2023-03-16T10:01:01.280Z,97873.69
2023-03-16T10:04:09.808Z,97876.47
2023-03-16T10:06:55.403Z,97879.19
2023-03-16T10:09:33.248Z,97874.94
2023-03-16T10:12:02.774Z,97879.63
2023-03-16T10:14:53.712Z,97893.00
2023-03-16T10:17:43.359Z,97890.59
2023-03-16T10:20:17.782Z,97896.75
2023-03-16T10:22:47.063Z,97904.03
2023-03-16T10:25:31.678Z,97898.66
2023-03-16T10:28:01.573Z,97889.97
2023-03-16T10:30:36.456Z,97905.84
2023-03-16T10:33:18.332Z,97905.22
2023-03-16T10:35:51.394Z,97908.09
2023-03-16T10:38:40.553Z,97909.72
2023-03-16T10:41:23.150Z,97907.88
2023-03-16T10:44:07.370Z,97904.31
2023-03-16T10:46:48.754Z,97902.06
2023-03-16T10:49:49.263Z,97904.69
2023-03-16T10:52:34.538Z,97896.59
2023-03-16T10:55:11.060Z,97905.69
2023-03-16T10:57:42.787Z,97908.44
2023-03-16T11:00:17.001Z,97905.69
2023-03-16T11:02:44.200Z,97905.78
2023-03-16T11:05:19.570Z,97907.38
2023-03-16T11:07:50.991Z,97907.63
2023-03-16T11:10:36.136Z,97909.69
2023-03-16T11:13:14.815Z,97899.41
2023-03-16T11:15:52.108Z,97901.19
2023-03-16T11:18:31.377Z,97906.25
2023-03-16T11:21:08.366Z,97900.78
2023-03-16T11:23:39.405Z,97884.88
2023-03-16T11:26:15.464Z,97902.16
2023-03-16T11:28:48.786Z,97896.31
2023-03-16T11:31:43.195Z,97906.03
2023-03-16T11:34:16.222Z,97916.84
2023-03-16T11:36:57.802Z,97904.81
2023-03-16T11:39:50.754Z,97896.19
2023-03-16T11:43:08.637Z,97901.72
2023-03-16T11:45:48.414Z,97899.16
2023-03-16T11:48:40.425Z,97904.50
2023-03-16T11:51:21.170Z,97900.19
2023-03-16T11:54:07.975Z,97897.50
2023-03-16T11:56:42.789Z,97893.53
2023-03-16T11:59:30.002Z,97888.19
2023-03-16T12:02:23.273Z,97890.97
2023-03-16T12:05:17.841Z,97886.63
2023-03-16T12:08:04.461Z,97871.19
2023-03-16T12:10:57.961Z,97878.88
2023-03-16T12:13:38.991Z,97879.00
2023-03-16T12:16:15.580Z,97877.66
2023-03-16T12:19:31.760Z,97877.59
2023-03-16T12:22:07.948Z,97867.47
2023-03-16T12:24:42.648Z,97864.88
2023-03-16T12:27:19.239Z,97867.41
2023-03-16T12:29:59.815Z,97867.38
2023-03-16T12:32:38.947Z,97859.16
2023-03-16T12:35:18.468Z,97878.72
2023-03-16T12:38:07.958Z,97862.63
2023-03-16T12:40:50.896Z,97870.56
2023-03-16T12:43:39.555Z,97873.19
2023-03-16T12:46:18.729Z,97884.88
2023-03-16T12:48:49.533Z,97888.28
2023-03-16T12:51:16.304Z,97872.75
2023-03-16T12:53:52.399Z,97885.09
2023-03-16T12:56:30.992Z,97885.47
2023-03-16T12:59:03.500Z,97881.56
2023-03-16T13:01:38.118Z,97883.53
2023-03-16T13:04:20.522Z,97884.88
2023-03-16T13:06:52.853Z,97872.81
2023-03-16T13:09:25.431Z,97890.41
2023-03-16T13:11:53.430Z,97888.53
2023-03-16T13:14:38.486Z,97889.28
2023-03-16T13:17:07.195Z,97890.94
2023-03-16T13:19:37.912Z,97898.78
2023-03-16T13:22:19.976Z,97887.22
2023-03-16T13:25:00.097Z,97886.88
2023-03-16T13:27:34.528Z,97885.16
2023-03-16T13:30:13.932Z,97893.13
2023-03-16T13:32:40.891Z,97886.25
2023-03-16T13:35:13.479Z,97890.78
2023-03-16T13:37:43.843Z,97887.66
2023-03-16T13:40:27.920Z,97881.28
2023-03-16T13:42:58.464Z,97877.41
2023-03-16T13:45:37.755Z,97883.97
2023-03-16T13:48:05.629Z,97884.28
2023-03-16T13:50:33.969Z,97882.66
2023-03-16T13:53:04.805Z,97851.78
2023-03-16T13:55:36.872Z,97859.41
2023-03-16T13:58:04.864Z,97862.28
2023-03-16T14:00:37.531Z,97873.41
2023-03-16T14:03:20.255Z,97876.63
2023-03-16T14:05:51.088Z,97887.22
2023-03-16T14:08:23.743Z,97887.47
2023-03-16T14:10:52.102Z,97869.00
2023-03-16T14:13:28.407Z,97891.16
2023-03-16T14:16:19.933Z,97888.53
2023-03-16T14:18:52.371Z,97855.75
2023-03-16T14:21:28.247Z,97868.41
2023-03-16T14:23:59.296Z,97875.09
2023-03-16T14:26:27.156Z,97883.63
2023-03-16T14:28:57.551Z,97867.84
2023-03-16T14:31:31.555Z,97887.66
2023-03-16T14:34:07.638Z,97874.56
2023-03-16T14:36:38.916Z,97882.47
2023-03-16T14:39:19.700Z,97882.13
2023-03-16T14:41:51.421Z,97835.69
2023-03-16T14:44:24.990Z,97885.97
2023-03-16T14:46:57.142Z,97879.63
2023-03-16T14:49:23.738Z,97891.41
2023-03-16T14:51:52.868Z,97896.81
2023-03-16T14:54:24.515Z,97908.22
2023-03-16T14:56:54.342Z,97902.97
2023-03-16T14:59:21.807Z,97902.88
2023-03-16T15:01:50.570Z,97906.41
2023-03-16T15:04:31.376Z,97904.72
2023-03-16T15:06:58.870Z,97895.16
2023-03-16T15:09:57.402Z,97899.22
2023-03-16T15:12:26.249Z,97906.25
2023-03-16T15:15:11.577Z,97898.66
2023-03-16T15:17:39.082Z,97894.25
2023-03-16T15:20:07.304Z,97887.03
2023-03-16T15:22:37.789Z,97892.66
2023-03-16T15:25:25.154Z,97899.75
2023-03-16T15:27:53.881Z,97896.09
2023-03-16T15:30:25.880Z,97901.56
2023-03-16T15:32:53.130Z,97897.91
2023-03-16T15:35:20.698Z,97891.50
2023-03-16T15:37:47.969Z,97909.94
2023-03-16T15:40:17.651Z,97909.13
2023-03-16T15:42:46.884Z,97900.53
2023-03-16T15:45:17.668Z,97897.63
2023-03-16T15:47:44.829Z,97896.22
2023-03-16T15:50:12.868Z,97919.81
2023-03-16T15:52:42.212Z,97902.69
2023-03-16T15:55:25.032Z,97912.72
2023-03-16T15:58:00.057Z,97914.41
2023-03-16T16:00:37.566Z,97926.06
2023-03-16T16:03:06.751Z,97925.56
2023-03-16T16:05:33.836Z,97921.38
2023-03-16T16:08:00.760Z,97914.00
2023-03-16T16:10:28.788Z,97901.22
2023-03-16T16:12:57.025Z,97932.78
2023-03-16T16:15:27.490Z,97922.31
2023-03-16T16:18:19.102Z,97937.97
2023-03-16T16:20:41.252Z,97939.94
2023-03-16T16:23:10.512Z,97935.19
2023-03-16T16:25:41.519Z,97939.28
2023-03-16T16:28:24.706Z,97901.16
2023-03-16T16:30:52.454Z,97945.28
2023-03-16T16:33:34.912Z,97952.56
2023-03-16T16:36:05.110Z,97929.22
2023-03-16T16:38:32.488Z,97956.97
2023-03-16T16:41:06.983Z,97947.84
2023-03-16T16:43:47.760Z,97962.19
2023-03-16T16:46:17.706Z,97959.25
2023-03-16T16:48:47.200Z,97950.38
2023-03-16T16:51:33.289Z,97958.50
2023-03-16T16:54:01.208Z,97969.31
2023-03-16T16:56:33.717Z,97962.88
2023-03-16T16:59:11.127Z,97975.25
2023-03-16T17:01:38.147Z,97931.44
2023-03-16T17:04:13.555Z,97973.41
2023-03-16T17:06:40.317Z,97941.63
2023-03-16T17:09:08.949Z,97949.72
2023-03-16T17:11:37.548Z,97982.56
2023-03-16T17:14:07.791Z,97988.19
2023-03-16T17:16:37.067Z,97975.78
2023-03-16T17:19:04.321Z,97975.22
2023-03-16T17:21:32.029Z,97983.28
2023-03-16T17:24:00.367Z,97987.06
2023-03-16T17:26:35.959Z,97967.63
2023-03-16T17:29:06.717Z,97999.94
2023-03-16T17:31:37.052Z,97946.81
2023-03-16T17:34:19.856Z,97969.09
2023-03-16T17:36:47.043Z,97963.16
2023-03-16T17:39:21.203Z,97995.97
2023-03-16T17:41:56.172Z,97987.00
2023-03-16T17:44:23.987Z,98000.41
2023-03-16T17:46:51.368Z,97991.19
2023-03-16T17:49:20.158Z,97999.56
2023-03-16T17:51:48.335Z,97910.75
2023-03-16T17:54:15.104Z,98009.94
2023-03-16T17:56:42.328Z,97967.53
2023-03-16T17:59:27.800Z,98003.38
2023-03-16T18:01:56.392Z,98008.69
2023-03-16T18:04:25.950Z,98002.97
2023-03-16T18:06:52.912Z,97983.69
2023-03-16T18:09:20.597Z,97977.09
2023-03-16T18:11:50.058Z,98016.69
2023-03-16T18:14:39.964Z,98014.97
2023-03-16T18:17:31.880Z,97975.00
2023-03-16T18:19:59.466Z,98006.50
2023-03-16T18:22:28.137Z,98014.31
2023-03-16T18:24:55.329Z,97983.97
2023-03-16T18:27:23.109Z,98016.81
2023-03-16T18:29:50.047Z,97985.41
2023-03-16T18:32:24.735Z,98018.91
2023-03-16T18:34:52.859Z,98025.88
2023-03-16T18:37:24.011Z,98023.75
2023-03-16T18:39:52.805Z,98017.16
2023-03-16T18:42:25.923Z,97995.72
2023-03-16T18:44:52.677Z,98046.31
2023-03-16T18:47:24.034Z,98016.78
2023-03-16T18:49:54.137Z,98018.41
2023-03-16T18:52:23.157Z,98046.38
2023-03-16T18:54:51.566Z,98052.50
2023-03-16T18:57:23.917Z,98008.38
2023-03-16T18:59:51.254Z,98046.19
2023-03-16T19:02:39.395Z,98052.66
2023-03-16T19:05:37.062Z,98048.09
2023-03-16T19:08:05.367Z,98041.47
2023-03-16T19:10:36.717Z,98052.13
2023-03-16T19:13:04.726Z,98061.63
2023-03-16T19:15:33.957Z,98057.59
2023-03-16T19:18:00.914Z,98026.03
2023-03-16T19:20:30.653Z,98057.41
2023-03-16T19:23:06.905Z,98064.72
2023-03-16T19:25:39.082Z,98060.66
2023-03-16T19:28:12.575Z,98058.69
2023-03-16T19:30:39.187Z,98064.41
2023-03-16T19:33:22.470Z,98048.16
2023-03-16T19:35:52.170Z,98039.09
2023-03-16T19:38:20.323Z,98050.28
2023-03-16T19:40:52.085Z,98035.59
2023-03-16T19:43:21.988Z,98031.78
2023-03-16T19:45:49.894Z,98070.16
2023-03-16T19:48:22.963Z,98037.56
2023-03-16T19:50:53.263Z,98055.66
2023-03-16T19:53:24.203Z,98071.97
2023-03-16T19:55:54.728Z,98048.25
2023-03-16T19:58:35.617Z,98093.69
2023-03-16T20:01:05.993Z,98085.34
2023-03-16T20:03:42.622Z,98082.09
2023-03-16T20:06:29.475Z,98083.38
2023-03-16T20:08:56.392Z,98070.31
2023-03-16T20:11:31.009Z,98078.59
2023-03-16T20:13:59.136Z,98084.59
2023-03-16T20:16:29.166Z,98076.06
2023-03-16T20:18:58.462Z,98068.69
2023-03-16T20:21:25.930Z,98085.41
2023-03-16T20:23:53.572Z,98103.16
2023-03-16T20:26:23.637Z,98083.81
2023-03-16T20:28:51.987Z,98102.63
2023-03-16T20:31:25.811Z,98094.69
2023-03-16T20:33:53.928Z,98093.06
2023-03-16T20:36:22.671Z,98072.94
2023-03-16T20:38:50.399Z,98091.50
2023-03-16T20:41:28.284Z,98094.53
2023-03-16T20:43:58.669Z,98097.09
2023-03-16T20:46:29.198Z,98087.28
2023-03-16T20:48:57.618Z,98093.75
2023-03-16T20:51:25.298Z,98075.16
2023-03-16T20:53:52.607Z,98040.94
2023-03-16T20:56:22.417Z,98089.19
2023-03-16T20:58:51.769Z,98088.34
2023-03-16T21:01:21.525Z,98060.75
2023-03-16T21:03:50.769Z,98086.41
2023-03-16T21:06:26.157Z,98076.72
2023-03-16T21:08:54.453Z,98081.56
2023-03-16T21:11:34.936Z,98086.13
2023-03-16T21:14:02.184Z,98071.53
2023-03-16T21:16:29.361Z,98078.25
2023-03-16T21:18:56.153Z,98073.97
2023-03-16T21:21:23.273Z,98043.69
2023-03-16T21:23:49.910Z,98086.97
2023-03-16T21:26:20.344Z,98079.09
2023-03-16T21:28:55.865Z,98073.88
2023-03-16T21:31:23.177Z,98084.53
2023-03-16T21:33:51.383Z,98089.16
2023-03-16T21:36:22.033Z,98094.72
2023-03-16T21:38:50.280Z,98100.66
2023-03-16T21:41:17.807Z,98077.59
2023-03-16T21:43:45.124Z,98106.00
2023-03-16T21:46:21.531Z,98074.56
2023-03-16T21:48:50.919Z,98102.69
2023-03-16T21:51:20.941Z,98100.94
2023-03-16T21:53:49.341Z,98111.53
2023-03-16T21:56:22.875Z,98095.03
2023-03-16T21:58:50.213Z,98109.06
2023-03-16T22:01:29.617Z,98111.28
2023-03-16T22:04:09.056Z,98112.31
2023-03-16T22:06:36.144Z,98097.78
2023-03-16T22:09:04.171Z,98096.88
2023-03-16T22:11:31.448Z,98064.94
2023-03-16T22:13:59.600Z,98107.56
2023-03-16T22:16:28.787Z,98107.09
2023-03-16T22:18:58.042Z,98101.88
2023-03-16T22:21:27.855Z,98100.13
2023-03-16T22:23:56.128Z,98098.03
2023-03-16T22:26:23.634Z,98094.91
2023-03-16T22:28:51.002Z,98014.22
2023-03-16T22:31:21.200Z,98068.44
2023-03-16T22:33:49.518Z,98085.72
2023-03-16T22:36:21.603Z,98087.13
2023-03-16T22:39:12.406Z,98086.91
2023-03-16T22:41:39.130Z,98070.16
2023-03-16T22:44:17.313Z,98081.31
2023-03-16T22:46:44.039Z,98051.97
2023-03-16T22:49:28.946Z,98074.69
2023-03-16T22:51:57.587Z,98065.06
2023-03-16T22:54:28.790Z,98075.97
2023-03-16T22:56:55.657Z,98073.19
2023-03-16T22:59:25.290Z,98043.22
2023-03-16T23:01:52.152Z,98050.75
2023-03-16T23:04:22.004Z,98040.09
2023-03-16T23:06:50.212Z,98057.16
2023-03-16T23:09:18.464Z,98054.38
2023-03-16T23:11:47.352Z,98071.06
2023-03-16T23:14:17.025Z,98079.06
2023-03-16T23:16:44.563Z,98042.50
2023-03-16T23:19:25.344Z,98070.38
2023-03-16T23:21:55.203Z,98073.38
2023-03-16T23:24:22.515Z,98077.91
2023-03-16T23:26:50.432Z,98058.84
2023-03-16T23:29:17.831Z,98082.91
2023-03-16T23:31:44.457Z,98042.34
2023-03-16T23:34:16.718Z,98072.59
2023-03-16T23:36:46.526Z,98083.50
2023-03-16T23:39:13.640Z,98070.91
2023-03-16T23:41:44.024Z,98084.31
2023-03-16T23:44:17.927Z,98087.66
2023-03-16T23:46:44.796Z,98054.06
2023-03-16T23:49:19.464Z,98076.00
2023-03-16T23:51:46.628Z,98048.75
2023-03-16T23:54:23.290Z,98087.88
2023-03-16T23:56:51.568Z,98070.09
2023-03-16T23:59:21.063Z,98099.53
